sensor_id;sensor_type;location;lat;lon;timestamp;pressure;altitude;pressure_sealevel;temperature;humidity
23164;BME280;31429;42.674;23.350;2023-03-15T00:00:47;93828.22;;;7.13;64.29
23164;BME280;31429;42.674;23.350;2023-03-15T00:01:48;93827.88;;;7.22;60.09
23164;BME280;31429;42.674;23.350;2023-03-15T00:02:48;93823.13;;;7.13;62.44
23164;BME280;31429;42.674;23.350;2023-03-15T00:03:49;93829.41;;;7.05;60.70
23164;BME280;31429;42.674;23.350;2023-03-15T00:04:50;93823.69;;;7.00;61.62
23164;BME280;31429;42.674;23.350;2023-03-15T00:05:54;93823.69;;;7.00;60.12
23164;BME280;31429;42.674;23.350;2023-03-15T00:06:54;93828.78;;;7.00;61.83
23164;BME280;31429;42.674;23.350;2023-03-15T00:07:55;93827.09;;;6.99;61.53
23164;BME280;31429;42.674;23.350;2023-03-15T00:08:56;93827.34;;;6.92;60.19
23164;BME280;31429;42.674;23.350;2023-03-15T00:09:56;93818.25;;;7.09;63.70
23164;BME280;31429;42.674;23.350;2023-03-15T00:10:58;93811.97;;;6.95;61.66
23164;BME280;31429;42.674;23.350;2023-03-15T00:11:59;93814.81;;;6.88;61.68
23164;BME280;31429;42.674;23.350;2023-03-15T00:12:59;93815.13;;;6.80;60.14
23164;BME280;31429;42.674;23.350;2023-03-15T00:14:00;93814.94;;;6.85;62.36
23164;BME280;31429;42.674;23.350;2023-03-15T00:15:06;93808.19;;;6.84;60.84
23164;BME280;31429;42.674;23.350;2023-03-15T00:16:07;93813.94;;;6.89;65.10
23164;BME280;31429;42.674;23.350;2023-03-15T00:17:08;93822.22;;;6.94;63.17
23164;BME280;31429;42.674;23.350;2023-03-15T00:18:08;93824.00;;;6.92;66.27
23164;BME280;31429;42.674;23.350;2023-03-15T00:19:10;93818.91;;;6.92;63.14
23164;BME280;31429;42.674;23.350;2023-03-15T00:20:11;93825.81;;;6.88;64.02
23164;BME280;31429;42.674;23.350;2023-03-15T00:21:12;93822.97;;;6.74;63.20
23164;BME280;31429;42.674;23.350;2023-03-15T00:22:12;93825.03;;;6.65;62.06
23164;BME280;31429;42.674;23.350;2023-03-15T00:23:13;93816.13;;;6.55;62.10
23164;BME280;31429;42.674;23.350;2023-03-15T00:24:14;93823.47;;;6.39;61.93
23164;BME280;31429;42.674;23.350;2023-03-15T00:25:15;93828.53;;;6.39;62.27
23164;BME280;31429;42.674;23.350;2023-03-15T00:26:16;93826.00;;;6.39;62.79
23164;BME280;31429;42.674;23.350;2023-03-15T00:27:16;93828.66;;;6.36;64.30
23164;BME280;31429;42.674;23.350;2023-03-15T00:28:17;93832.19;;;6.32;64.24
23164;BME280;31429;42.674;23.350;2023-03-15T00:29:19;93826.34;;;6.30;63.87
23164;BME280;31429;42.674;23.350;2023-03-15T00:30:21;93830.72;;;6.26;64.15
23164;BME280;31429;42.674;23.350;2023-03-15T00:31:23;93829.16;;;6.22;64.31
23164;BME280;31429;42.674;23.350;2023-03-15T00:32:24;93819.06;;;6.21;64.79
23164;BME280;31429;42.674;23.350;2023-03-15T00:33:25;93820.59;;;6.25;68.41
23164;BME280;31429;42.674;23.350;2023-03-15T00:34:26;93808.53;;;6.31;73.14
23164;BME280;31429;42.674;23.350;2023-03-15T00:35:26;93812.31;;;6.43;68.84
23164;BME280;31429;42.674;23.350;2023-03-15T00:36:27;93809.69;;;6.46;67.07
23164;BME280;31429;42.674;23.350;2023-03-15T00:37:28;93806.00;;;6.53;70.97
23164;BME280;31429;42.674;23.350;2023-03-15T00:38:30;93804.94;;;6.59;72.21
23164;BME280;31429;42.674;23.350;2023-03-15T00:39:31;93808.97;;;6.64;71.96
23164;BME280;31429;42.674;23.350;2023-03-15T00:40:37;93798.91;;;6.61;71.60
23164;BME280;31429;42.674;23.350;2023-03-15T00:41:37;93803.00;;;6.65;72.31
23164;BME280;31429;42.674;23.350;2023-03-15T00:42:38;93791.59;;;6.54;65.06
23164;BME280;31429;42.674;23.350;2023-03-15T00:43:39;93795.38;;;6.44;63.69
23164;BME280;31429;42.674;23.350;2023-03-15T00:44:40;93805.91;;;6.33;64.78
23164;BME280;31429;42.674;23.350;2023-03-15T00:45:43;93807.75;;;6.29;64.82
23164;BME280;31429;42.674;23.350;2023-03-15T00:46:44;93808.13;;;6.19;64.75
23164;BME280;31429;42.674;23.350;2023-03-15T00:47:47;93800.88;;;6.10;65.68
23164;BME280;31429;42.674;23.350;2023-03-15T00:48:49;93806.06;;;6.07;66.04
23164;BME280;31429;42.674;23.350;2023-03-15T00:49:49;93808.09;;;5.97;65.04
23164;BME280;31429;42.674;23.350;2023-03-15T00:50:50;93811.44;;;5.98;65.37
23164;BME280;31429;42.674;23.350;2023-03-15T00:51:53;93809.31;;;5.87;64.22
23164;BME280;31429;42.674;23.350;2023-03-15T00:52:54;93802.34;;;5.92;64.62
23164;BME280;31429;42.674;23.350;2023-03-15T00:53:54;93801.31;;;5.98;63.24
23164;BME280;31429;42.674;23.350;2023-03-15T00:54:55;93797.91;;;5.99;63.43
23164;BME280;31429;42.674;23.350;2023-03-15T00:55:56;93800.19;;;6.05;63.87
23164;BME280;31429;42.674;23.350;2023-03-15T00:56:56;93801.53;;;6.15;68.63
23164;BME280;31429;42.674;23.350;2023-03-15T00:57:57;93797.88;;;6.22;68.92
23164;BME280;31429;42.674;23.350;2023-03-15T00:58:58;93783.06;;;6.33;69.97
23164;BME280;31429;42.674;23.350;2023-03-15T00:59:58;93782.75;;;6.19;64.13
23164;BME280;31429;42.674;23.350;2023-03-15T01:01:04;93787.81;;;6.19;64.70
23164;BME280;31429;42.674;23.350;2023-03-15T01:02:05;93784.72;;;6.12;64.03
23164;BME280;31429;42.674;23.350;2023-03-15T01:03:06;93790.00;;;6.06;62.79
23164;BME280;31429;42.674;23.350;2023-03-15T01:04:07;93785.22;;;5.99;62.78
23164;BME280;31429;42.674;23.350;2023-03-15T01:05:08;93785.22;;;5.99;63.11
23164;BME280;31429;42.674;23.350;2023-03-15T01:06:12;93785.25;;;5.97;66.12
23164;BME280;31429;42.674;23.350;2023-03-15T01:07:13;93782.59;;;6.00;66.15
23164;BME280;31429;42.674;23.350;2023-03-15T01:08:13;93785.88;;;6.04;69.87
23164;BME280;31429;42.674;23.350;2023-03-15T01:09:14;93778.69;;;6.15;77.18
23164;BME280;31429;42.674;23.350;2023-03-15T01:10:15;93775.00;;;6.23;73.81
23164;BME280;31429;42.674;23.350;2023-03-15T01:11:19;93775.25;;;6.16;72.99
23164;BME280;31429;42.674;23.350;2023-03-15T01:12:20;93777.56;;;6.22;72.40
23164;BME280;31429;42.674;23.350;2023-03-15T01:13:21;93782.66;;;6.22;70.00
23164;BME280;31429;42.674;23.350;2023-03-15T01:14:21;93777.41;;;6.26;73.29
23164;BME280;31429;42.674;23.350;2023-03-15T01:15:22;93772.78;;;6.38;74.16
23164;BME280;31429;42.674;23.350;2023-03-15T01:16:25;93772.78;;;6.38;68.23
23164;BME280;31429;42.674;23.350;2023-03-15T01:17:26;93779.13;;;6.26;68.37
23164;BME280;31429;42.674;23.350;2023-03-15T01:18:27;93773.53;;;6.16;67.49
23164;BME280;31429;42.674;23.350;2023-03-15T01:19:28;93775.63;;;6.07;66.87
23164;BME280;31429;42.674;23.350;2023-03-15T01:20:28;93772.47;;;6.00;67.21
23164;BME280;31429;42.674;23.350;2023-03-15T01:21:29;93762.53;;;5.94;66.85
23164;BME280;31429;42.674;23.350;2023-03-15T01:22:30;93766.66;;;5.97;66.38
23164;BME280;31429;42.674;23.350;2023-03-15T01:23:30;93764.31;;;5.92;67.27
23164;BME280;31429;42.674;23.350;2023-03-15T01:24:31;93766.22;;;5.86;68.41
23164;BME280;31429;42.674;23.350;2023-03-15T01:25:33;93765.47;;;5.82;69.09
23164;BME280;31429;42.674;23.350;2023-03-15T01:26:33;93759.59;;;5.82;70.37
23164;BME280;31429;42.674;23.350;2023-03-15T01:27:34;93754.56;;;5.80;71.23
23164;BME280;31429;42.674;23.350;2023-03-15T01:28:35;93763.88;;;5.79;71.17
23164;BME280;31429;42.674;23.350;2023-03-15T01:29:35;93763.19;;;5.76;70.78
23164;BME280;31429;42.674;23.350;2023-03-15T01:30:36;93766.47;;;5.78;72.92
23164;BME280;31429;42.674;23.350;2023-03-15T01:31:38;93756.34;;;5.78;73.27
23164;BME280;31429;42.674;23.350;2023-03-15T01:32:39;93756.53;;;5.72;73.70
23164;BME280;31429;42.674;23.350;2023-03-15T01:33:39;93758.09;;;5.76;74.36
23164;BME280;31429;42.674;23.350;2023-03-15T01:34:40;93757.19;;;5.77;75.75
23164;BME280;31429;42.674;23.350;2023-03-15T01:35:42;93750.34;;;5.79;79.96
23164;BME280;31429;42.674;23.350;2023-03-15T01:36:43;93756.63;;;5.94;85.19
23164;BME280;31429;42.674;23.350;2023-03-15T01:37:44;93750.16;;;6.08;83.75
23164;BME280;31429;42.674;23.350;2023-03-15T01:38:45;93753.88;;;6.00;77.96
23164;BME280;31429;42.674;23.350;2023-03-15T01:39:47;93751.72;;;5.89;78.77
23164;BME280;31429;42.674;23.350;2023-03-15T01:40:48;93756.16;;;5.82;79.42
23164;BME280;31429;42.674;23.350;2023-03-15T01:41:49;93755.44;;;5.79;80.06
23164;BME280;31429;42.674;23.350;2023-03-15T01:42:51;93748.72;;;5.78;80.65
23164;BME280;31429;42.674;23.350;2023-03-15T01:43:52;93745.13;;;5.84;86.13
23164;BME280;31429;42.674;23.350;2023-03-15T01:44:54;93748.91;;;5.97;84.80
23164;BME280;31429;42.674;23.350;2023-03-15T01:46:03;93747.28;;;5.96;83.04
23164;BME280;31429;42.674;23.350;2023-03-15T01:47:06;93743.72;;;6.00;82.81
23164;BME280;31429;42.674;23.350;2023-03-15T01:48:06;93738.72;;;5.98;83.82
23164;BME280;31429;42.674;23.350;2023-03-15T01:49:08;93745.53;;;5.96;80.80
23164;BME280;31429;42.674;23.350;2023-03-15T01:50:11;93745.91;;;5.87;81.75
23164;BME280;31429;42.674;23.350;2023-03-15T01:51:16;93739.53;;;5.75;81.05
23164;BME280;31429;42.674;23.350;2023-03-15T01:52:20;93739.78;;;5.68;82.47
23164;BME280;31429;42.674;23.350;2023-03-15T01:53:21;93741.66;;;5.63;82.12
23164;BME280;31429;42.674;23.350;2023-03-15T01:54:25;93737.47;;;5.62;84.23
23164;BME280;31429;42.674;23.350;2023-03-15T01:55:28;93732.22;;;5.66;88.09
23164;BME280;31429;42.674;23.350;2023-03-15T01:56:34;93733.44;;;5.79;91.49
23164;BME280;31429;42.674;23.350;2023-03-15T01:57:37;93728.31;;;5.81;86.53
23164;BME280;31429;42.674;23.350;2023-03-15T01:58:42;93728.03;;;5.65;84.99
23164;BME280;31429;42.674;23.350;2023-03-15T01:59:48;93730.22;;;5.51;85.44
23164;BME280;31429;42.674;23.350;2023-03-15T02:00:51;93725.47;;;5.42;85.85
23164;BME280;31429;42.674;23.350;2023-03-15T02:01:53;93724.88;;;5.36;87.00
23164;BME280;31429;42.674;23.350;2023-03-15T02:02:59;93721.69;;;5.31;88.40
23164;BME280;31429;42.674;23.350;2023-03-15T02:04:03;93719.16;;;5.31;89.36
23164;BME280;31429;42.674;23.350;2023-03-15T02:05:08;93729.38;;;5.28;89.70
23164;BME280;31429;42.674;23.350;2023-03-15T02:06:15;93727.81;;;5.23;90.15
23164;BME280;31429;42.674;23.350;2023-03-15T02:07:20;93718.53;;;5.24;90.77
23164;BME280;31429;42.674;23.350;2023-03-15T02:08:25;93720.16;;;5.25;91.65
23164;BME280;31429;42.674;23.350;2023-03-15T02:09:31;93718.25;;;5.32;95.58
23164;BME280;31429;42.674;23.350;2023-03-15T02:10:37;93718.56;;;5.47;100.00
23164;BME280;31429;42.674;23.350;2023-03-15T02:11:40;93713.28;;;5.53;100.00
23164;BME280;31429;42.674;23.350;2023-03-15T02:12:44;93711.00;;;5.46;90.38
23164;BME280;31429;42.674;23.350;2023-03-15T02:13:47;93710.44;;;5.38;91.07
23164;BME280;31429;42.674;23.350;2023-03-15T02:14:49;93703.88;;;5.32;92.35
23164;BME280;31429;42.674;23.350;2023-03-15T02:15:52;93702.72;;;5.41;98.15
23164;BME280;31429;42.674;23.350;2023-03-15T02:16:53;93709.09;;;5.52;99.23
23164;BME280;31429;42.674;23.350;2023-03-15T02:17:54;93704.75;;;5.56;98.28
23164;BME280;31429;42.674;23.350;2023-03-15T02:18:56;93702.25;;;5.54;95.22
23164;BME280;31429;42.674;23.350;2023-03-15T02:20:04;93700.72;;;5.50;95.11
23164;BME280;31429;42.674;23.350;2023-03-15T02:21:16;93698.44;;;5.43;93.23
23164;BME280;31429;42.674;23.350;2023-03-15T02:22:30;93691.66;;;5.43;98.69
23164;BME280;31429;42.674;23.350;2023-03-15T02:23:32;93697.38;;;5.48;93.34
23164;BME280;31429;42.674;23.350;2023-03-15T02:24:38;93696.84;;;5.40;94.71
23164;BME280;31429;42.674;23.350;2023-03-15T02:25:48;93689.41;;;5.36;99.93
23164;BME280;31429;42.674;23.350;2023-03-15T02:26:53;93686.91;;;5.34;99.15
23164;BME280;31429;42.674;23.350;2023-03-15T02:27:56;93694.25;;;5.42;99.02
23164;BME280;31429;42.674;23.350;2023-03-15T02:28:57;93695.34;;;5.35;93.57
23164;BME280;31429;42.674;23.350;2023-03-15T02:29:59;93695.75;;;5.22;92.25
23164;BME280;31429;42.674;23.350;2023-03-15T02:31:03;93691.94;;;5.11;93.93
23164;BME280;31429;42.674;23.350;2023-03-15T02:32:04;93689.03;;;4.97;93.70
23164;BME280;31429;42.674;23.350;2023-03-15T02:33:08;93688.34;;;4.93;94.96
23164;BME280;31429;42.674;23.350;2023-03-15T02:34:10;93687.72;;;4.87;97.01
23164;BME280;31429;42.674;23.350;2023-03-15T02:35:11;93690.34;;;4.84;98.03
23164;BME280;31429;42.674;23.350;2023-03-15T02:36:16;93679.56;;;4.77;99.06
23164;BME280;31429;42.674;23.350;2023-03-15T02:37:18;93691.38;;;4.78;96.92
23164;BME280;31429;42.674;23.350;2023-03-15T02:38:18;93694.66;;;4.80;97.48
23164;BME280;31429;42.674;23.350;2023-03-15T02:39:20;93698.41;;;4.95;100.00
23164;BME280;31429;42.674;23.350;2023-03-15T02:40:25;93694.53;;;5.09;100.00
23164;BME280;31429;42.674;23.350;2023-03-15T02:41:29;93687.69;;;5.11;100.00
23164;BME280;31429;42.674;23.350;2023-03-15T02:42:32;93700.47;;;5.08;96.98
23164;BME280;31429;42.674;23.350;2023-03-15T02:43:35;93694.06;;;4.98;94.97
23164;BME280;31429;42.674;23.350;2023-03-15T02:44:37;93696.06;;;4.89;93.72
23164;BME280;31429;42.674;23.350;2023-03-15T02:45:39;93691.81;;;4.91;95.24
23164;BME280;31429;42.674;23.350;2023-03-15T02:46:40;93692.31;;;5.00;98.20
23164;BME280;31429;42.674;23.350;2023-03-15T02:47:42;93696.34;;;5.06;98.72
23164;BME280;31429;42.674;23.350;2023-03-15T02:48:45;93683.97;;;4.97;95.80
23164;BME280;31429;42.674;23.350;2023-03-15T02:49:49;93695.00;;;4.96;95.65
23164;BME280;31429;42.674;23.350;2023-03-15T02:50:50;93690.66;;;4.99;100.00
23164;BME280;31429;42.674;23.350;2023-03-15T02:51:51;93679.59;;;5.02;100.00
23164;BME280;31429;42.674;23.350;2023-03-15T02:52:51;93689.19;;;5.17;100.00
23164;BME280;31429;42.674;23.350;2023-03-15T02:53:52;93684.94;;;5.19;100.00
23164;BME280;31429;42.674;23.350;2023-03-15T02:54:53;93686.56;;;5.20;100.00
23164;BME280;31429;42.674;23.350;2023-03-15T02:55:53;93677.63;;;5.10;97.21
23164;BME280;31429;42.674;23.350;2023-03-15T02:56:54;93679.34;;;5.09;100.00
23164;BME280;31429;42.674;23.350;2023-03-15T02:57:55;93682.63;;;5.11;100.00
23164;BME280;31429;42.674;23.350;2023-03-15T02:58:57;93680.81;;;5.15;100.00
23164;BME280;31429;42.674;23.350;2023-03-15T02:59:57;93683.25;;;5.18;100.00
23164;BME280;31429;42.674;23.350;2023-03-15T03:00:59;93682.59;;;5.13;97.06
23164;BME280;31429;42.674;23.350;2023-03-15T03:02:00;93680.00;;;5.14;96.43
23164;BME280;31429;42.674;23.350;2023-03-15T03:03:01;93671.56;;;5.14;96.47
23164;BME280;31429;42.674;23.350;2023-03-15T03:04:02;93674.91;;;5.16;94.50
23164;BME280;31429;42.674;23.350;2023-03-15T03:05:03;93671.97;;;5.27;96.98
23164;BME280;31429;42.674;23.350;2023-03-15T03:06:04;93674.41;;;5.30;97.17
23164;BME280;31429;42.674;23.350;2023-03-15T03:07:05;93668.72;;;5.23;84.00
23164;BME280;31429;42.674;23.350;2023-03-15T03:08:05;93674.63;;;5.23;84.32
23164;BME280;31429;42.674;23.350;2023-03-15T03:09:06;93678.81;;;5.25;81.54
23164;BME280;31429;42.674;23.350;2023-03-15T03:10:09;93669.34;;;5.30;85.81
23164;BME280;31429;42.674;23.350;2023-03-15T03:11:09;93668.69;;;5.25;83.60
23164;BME280;31429;42.674;23.350;2023-03-15T03:12:10;93666.03;;;5.28;85.54
23164;BME280;31429;42.674;23.350;2023-03-15T03:13:11;93670.31;;;5.26;85.83
23164;BME280;31429;42.674;23.350;2023-03-15T03:14:13;93668.63;;;5.26;88.01
23164;BME280;31429;42.674;23.350;2023-03-15T03:15:13;93658.47;;;5.26;89.15
23164;BME280;31429;42.674;23.350;2023-03-15T03:16:14;93661.94;;;5.23;92.01
23164;BME280;31429;42.674;23.350;2023-03-15T03:17:15;93659.53;;;5.20;94.23
23164;BME280;31429;42.674;23.350;2023-03-15T03:18:15;93660.34;;;5.21;90.45
23164;BME280;31429;42.674;23.350;2023-03-15T03:19:16;93654.47;;;5.20;93.44
23164;BME280;31429;42.674;23.350;2023-03-15T03:20:17;93655.47;;;5.16;85.92
23164;BME280;31429;42.674;23.350;2023-03-15T03:21:17;93648.66;;;5.17;88.04
23164;BME280;31429;42.674;23.350;2023-03-15T03:22:18;93656.88;;;5.23;89.57
23164;BME280;31429;42.674;23.350;2023-03-15T03:23:19;93657.72;;;5.24;85.55
23164;BME280;31429;42.674;23.350;2023-03-15T03:24:20;93650.94;;;5.25;86.52
23164;BME280;31429;42.674;23.350;2023-03-15T03:25:20;93656.03;;;5.25;82.55
23164;BME280;31429;42.674;23.350;2023-03-15T03:26:21;93654.63;;;5.16;83.57
23164;BME280;31429;42.674;23.350;2023-03-15T03:27:27;93659.84;;;5.11;84.89
23164;BME280;31429;42.674;23.350;2023-03-15T03:28:29;93646.88;;;4.96;84.14
23164;BME280;31429;42.674;23.350;2023-03-15T03:29:31;93654.72;;;4.88;82.09
23164;BME280;31429;42.674;23.350;2023-03-15T03:30:34;93652.63;;;4.76;82.73
23164;BME280;31429;42.674;23.350;2023-03-15T03:31:34;93646.84;;;4.73;82.54
23164;BME280;31429;42.674;23.350;2023-03-15T03:32:35;93646.06;;;4.71;81.38
23164;BME280;31429;42.674;23.350;2023-03-15T03:33:36;93640.06;;;4.73;83.13
23164;BME280;31429;42.674;23.350;2023-03-15T03:34:36;93646.88;;;4.71;80.88
23164;BME280;31429;42.674;23.350;2023-03-15T03:35:37;93641.13;;;4.66;79.50
23164;BME280;31429;42.674;23.350;2023-03-15T03:36:38;93646.94;;;4.70;81.38
23164;BME280;31429;42.674;23.350;2023-03-15T03:37:38;93641.88;;;4.70;80.99
23164;BME280;31429;42.674;23.350;2023-03-15T03:38:39;93638.66;;;4.64;81.45
23164;BME280;31429;42.674;23.350;2023-03-15T03:39:41;93634.38;;;4.67;82.02
23164;BME280;31429;42.674;23.350;2023-03-15T03:40:41;93636.81;;;4.70;81.30
23164;BME280;31429;42.674;23.350;2023-03-15T03:41:42;93634.84;;;4.78;81.08
23164;BME280;31429;42.674;23.350;2023-03-15T03:42:43;93632.97;;;4.83;86.51
23164;BME280;31429;42.674;23.350;2023-03-15T03:43:43;93629.25;;;4.93;93.21
23164;BME280;31429;42.674;23.350;2023-03-15T03:44:45;93630.69;;;5.00;96.99
23164;BME280;31429;42.674;23.350;2023-03-15T03:45:46;93632.28;;;5.02;90.13
23164;BME280;31429;42.674;23.350;2023-03-15T03:46:46;93635.22;;;5.15;89.77
23164;BME280;31429;42.674;23.350;2023-03-15T03:47:47;93637.59;;;5.19;85.63
23164;BME280;31429;42.674;23.350;2023-03-15T03:48:49;93632.53;;;5.19;84.29
23164;BME280;31429;42.674;23.350;2023-03-15T03:49:50;93628.25;;;5.21;89.63
23164;BME280;31429;42.674;23.350;2023-03-15T03:50:51;93628.25;;;5.21;90.14
23164;BME280;31429;42.674;23.350;2023-03-15T03:51:51;93638.88;;;5.31;89.99
23164;BME280;31429;42.674;23.350;2023-03-15T03:52:52;93628.72;;;5.31;89.52
23164;BME280;31429;42.674;23.350;2023-03-15T03:53:53;93632.22;;;5.29;84.34
23164;BME280;31429;42.674;23.350;2023-03-15T03:54:53;93634.81;;;5.27;91.29
23164;BME280;31429;42.674;23.350;2023-03-15T03:55:54;93628.59;;;5.36;94.74
23164;BME280;31429;42.674;23.350;2023-03-15T03:56:55;93624.25;;;5.39;89.83
23164;BME280;31429;42.674;23.350;2023-03-15T03:57:55;93631.22;;;5.33;85.77
23164;BME280;31429;42.674;23.350;2023-03-15T03:58:56;93634.19;;;5.20;85.20
23164;BME280;31429;42.674;23.350;2023-03-15T03:59:58;93633.69;;;5.11;83.87
23164;BME280;31429;42.674;23.350;2023-03-15T04:00:58;93627.91;;;5.07;85.11
23164;BME280;31429;42.674;23.350;2023-03-15T04:01:59;93625.31;;;5.09;91.69
23164;BME280;31429;42.674;23.350;2023-03-15T04:03:00;93623.44;;;5.14;87.65
23164;BME280;31429;42.674;23.350;2023-03-15T04:04:01;93623.41;;;5.15;88.31
23164;BME280;31429;42.674;23.350;2023-03-15T04:05:02;93625.94;;;5.15;93.16
23164;BME280;31429;42.674;23.350;2023-03-15T04:06:02;93625.00;;;5.18;96.11
23164;BME280;31429;42.674;23.350;2023-03-15T04:07:05;93620.69;;;5.20;98.96
23164;BME280;31429;42.674;23.350;2023-03-15T04:08:05;93618.25;;;5.17;89.29
23164;BME280;31429;42.674;23.350;2023-03-15T04:09:06;93615.91;;;5.12;84.43
23164;BME280;31429;42.674;23.350;2023-03-15T04:10:08;93611.47;;;5.19;87.92
23164;BME280;31429;42.674;23.350;2023-03-15T04:11:13;93619.84;;;5.19;85.81
23164;BME280;31429;42.674;23.350;2023-03-15T04:12:16;93607.91;;;5.23;86.96
23164;BME280;31429;42.674;23.350;2023-03-15T04:13:17;93610.34;;;5.26;86.44
23164;BME280;31429;42.674;23.350;2023-03-15T04:14:18;93614.66;;;5.24;90.34
23164;BME280;31429;42.674;23.350;2023-03-15T04:15:20;93613.72;;;5.27;86.30
23164;BME280;31429;42.674;23.350;2023-03-15T04:16:21;93614.31;;;5.33;85.11
23164;BME280;31429;42.674;23.350;2023-03-15T04:17:23;93614.97;;;5.38;86.02
23164;BME280;31429;42.674;23.350;2023-03-15T04:18:24;93607.41;;;5.37;82.25
23164;BME280;31429;42.674;23.350;2023-03-15T04:19:25;93604.78;;;5.40;87.18
23164;BME280;31429;42.674;23.350;2023-03-15T04:20:26;93605.50;;;5.43;91.02
23164;BME280;31429;42.674;23.350;2023-03-15T04:21:27;93614.66;;;5.47;91.81
23164;BME280;31429;42.674;23.350;2023-03-15T04:22:31;93613.97;;;5.42;91.80
23164;BME280;31429;42.674;23.350;2023-03-15T04:23:34;93612.25;;;5.43;92.86
23164;BME280;31429;42.674;23.350;2023-03-15T04:24:34;93604.88;;;5.37;91.07
23164;BME280;31429;42.674;23.350;2023-03-15T04:25:35;93610.88;;;5.34;87.97
23164;BME280;31429;42.674;23.350;2023-03-15T04:26:36;93612.34;;;5.41;86.01
23164;BME280;31429;42.674;23.350;2023-03-15T04:27:36;93607.69;;;5.29;86.61
23164;BME280;31429;42.674;23.350;2023-03-15T04:28:37;93610.53;;;5.21;87.57
23164;BME280;31429;42.674;23.350;2023-03-15T04:29:37;93616.56;;;5.17;83.08
23164;BME280;31429;42.674;23.350;2023-03-15T04:30:39;93613.19;;;5.17;85.63
23164;BME280;31429;42.674;23.350;2023-03-15T04:31:42;93608.09;;;5.18;83.29
23164;BME280;31429;42.674;23.350;2023-03-15T04:32:42;93604.72;;;5.18;88.97
23164;BME280;31429;42.674;23.350;2023-03-15T04:33:43;93602.84;;;5.23;94.40
23164;BME280;31429;42.674;23.350;2023-03-15T04:34:44;93601.91;;;5.26;89.07
23164;BME280;31429;42.674;23.350;2023-03-15T04:35:44;93604.72;;;5.18;86.70
23164;BME280;31429;42.674;23.350;2023-03-15T04:36:45;93606.94;;;5.04;82.80
23164;BME280;31429;42.674;23.350;2023-03-15T04:37:46;93594.78;;;4.89;83.27
23164;BME280;31429;42.674;23.350;2023-03-15T04:38:46;93596.63;;;4.85;81.87
23164;BME280;31429;42.674;23.350;2023-03-15T04:39:47;93594.19;;;4.82;83.03
23164;BME280;31429;42.674;23.350;2023-03-15T04:40:47;93600.47;;;4.95;92.84
23164;BME280;31429;42.674;23.350;2023-03-15T04:41:49;93604.31;;;5.05;88.25
23164;BME280;31429;42.674;23.350;2023-03-15T04:42:50;93593.75;;;4.94;86.16
23164;BME280;31429;42.674;23.350;2023-03-15T04:43:51;93614.09;;;4.91;85.27
23164;BME280;31429;42.674;23.350;2023-03-15T04:44:51;93610.19;;;4.83;83.68
23164;BME280;31429;42.674;23.350;2023-03-15T04:45:54;93614.56;;;4.79;83.63
23164;BME280;31429;42.674;23.350;2023-03-15T04:46:55;93612.06;;;4.78;84.81
23164;BME280;31429;42.674;23.350;2023-03-15T04:47:56;93603.72;;;4.74;86.54
23164;BME280;31429;42.674;23.350;2023-03-15T04:48:57;93606.16;;;4.77;90.58
23164;BME280;31429;42.674;23.350;2023-03-15T04:49:57;93606.22;;;4.76;90.14
23164;BME280;31429;42.674;23.350;2023-03-15T04:50:58;93607.19;;;4.72;90.04
23164;BME280;31429;42.674;23.350;2023-03-15T04:51:58;93611.50;;;4.70;87.05
23164;BME280;31429;42.674;23.350;2023-03-15T04:52:59;93611.50;;;4.70;87.42
23164;BME280;31429;42.674;23.350;2023-03-15T04:54:01;93608.09;;;4.71;85.26
23164;BME280;31429;42.674;23.350;2023-03-15T04:55:02;93612.22;;;4.73;84.71
23164;BME280;31429;42.674;23.350;2023-03-15T04:56:03;93615.31;;;4.81;90.12
23164;BME280;31429;42.674;23.350;2023-03-15T04:57:04;93617.56;;;4.89;91.60
23164;BME280;31429;42.674;23.350;2023-03-15T04:58:05;93613.06;;;4.97;91.91
23164;BME280;31429;42.674;23.350;2023-03-15T04:59:05;93616.88;;;5.08;98.65
23164;BME280;31429;42.674;23.350;2023-03-15T05:00:09;93607.38;;;5.15;94.99
23164;BME280;31429;42.674;23.350;2023-03-15T05:01:12;93602.25;;;5.16;100.00
23164;BME280;31429;42.674;23.350;2023-03-15T05:02:13;93605.47;;;5.21;97.42
23164;BME280;31429;42.674;23.350;2023-03-15T05:03:14;93601.88;;;5.27;100.00
23164;BME280;31429;42.674;23.350;2023-03-15T05:04:14;93596.69;;;5.30;100.00
23164;BME280;31429;42.674;23.350;2023-03-15T05:05:15;93602.53;;;5.32;92.13
23164;BME280;31429;42.674;23.350;2023-03-15T05:06:16;93600.16;;;5.28;90.51
23164;BME280;31429;42.674;23.350;2023-03-15T05:07:17;93595.69;;;5.79;100.00
23164;BME280;31429;42.674;23.350;2023-03-15T05:08:17;93604.59;;;5.67;96.61
23164;BME280;31429;42.674;23.350;2023-03-15T05:09:18;93612.13;;;5.69;90.29
23164;BME280;31429;42.674;23.350;2023-03-15T05:10:20;93618.16;;;5.66;94.95
23164;BME280;31429;42.674;23.350;2023-03-15T05:11:20;93617.84;;;5.74;94.50
23164;BME280;31429;42.674;23.350;2023-03-15T05:12:21;93612.44;;;5.83;92.52
23164;BME280;31429;42.674;23.350;2023-03-15T05:13:23;93607.31;;;5.85;93.56
23164;BME280;31429;42.674;23.350;2023-03-15T05:14:24;93604.41;;;5.95;90.31
23164;BME280;31429;42.674;23.350;2023-03-15T05:15:25;93600.28;;;5.93;93.04
23164;BME280;31429;42.674;23.350;2023-03-15T05:16:27;93592.19;;;8.71;100.00
23164;BME280;31429;42.674;23.350;2023-03-15T05:17:28;93597.47;;;7.01;100.00
23164;BME280;31429;42.674;23.350;2023-03-15T05:18:29;93601.25;;;6.52;100.00
23164;BME280;31429;42.674;23.350;2023-03-15T05:19:29;93600.34;;;6.33;100.00
23164;BME280;31429;42.674;23.350;2023-03-15T05:20:33;93599.91;;;6.23;100.00
23164;BME280;31429;42.674;23.350;2023-03-15T05:21:34;93594.94;;;6.20;100.00
23164;BME280;31429;42.674;23.350;2023-03-15T05:22:35;93593.53;;;6.13;100.00
23164;BME280;31429;42.674;23.350;2023-03-15T05:23:36;93604.69;;;6.09;100.00
23164;BME280;31429;42.674;23.350;2023-03-15T05:24:36;93600.91;;;5.98;100.00
23164;BME280;31429;42.674;23.350;2023-03-15T05:25:37;93597.34;;;6.02;100.00
23164;BME280;31429;42.674;23.350;2023-03-15T05:26:37;93591.69;;;6.17;100.00